createdAt,value
2023-01-13T00:01:50.797Z,50.13
2023-01-13T00:04:18.221Z,50.53
2023-01-13T00:06:45.466Z,50.67
2023-01-13T00:09:12.608Z,50.67
2023-01-13T00:11:39.637Z,50.40
2023-01-13T00:14:06.687Z,51.07
2023-01-13T00:16:34.001Z,50.71
2023-01-13T00:19:02.933Z,51.01
2023-01-13T00:21:30.056Z,50.66
2023-01-13T00:23:57.170Z,50.62
2023-01-13T00:26:30.848Z,51.13
2023-01-13T00:28:58.981Z,51.22
2023-01-13T00:31:26.751Z,50.88
2023-01-13T00:33:59.460Z,50.69
2023-01-13T00:36:27.117Z,50.30
2023-01-13T00:38:54.279Z,50.73
2023-01-13T00:41:23.275Z,50.44
2023-01-13T00:43:51.005Z,50.64
2023-01-13T00:46:21.232Z,50.48
2023-01-13T00:48:48.835Z,50.41
2023-01-13T00:51:19.747Z,50.57
2023-01-13T00:53:49.418Z,50.52
2023-01-13T00:56:24.314Z,50.36
2023-01-13T00:58:58.944Z,50.72
2023-01-13T01:01:26.545Z,49.98
2023-01-13T01:03:55.721Z,50.16
2023-01-13T01:06:27.773Z,50.57
2023-01-13T01:08:56.195Z,50.53
2023-01-13T01:11:29.411Z,51.07
2023-01-13T01:14:02.189Z,50.79
2023-01-13T01:16:31.648Z,50.69
2023-01-13T01:18:59.564Z,50.78
2023-01-13T01:21:28.219Z,50.77
2023-01-13T01:23:55.691Z,50.83
2023-01-13T01:26:24.917Z,51.05
2023-01-13T01:28:53.124Z,51.22
2023-01-13T01:31:32.012Z,51.13
2023-01-13T01:34:00.136Z,51.10
2023-01-13T01:36:32.408Z,51.37
2023-01-13T01:39:00.130Z,51.44
2023-01-13T01:41:30.299Z,51.23
2023-01-13T01:44:29.035Z,51.30
2023-01-13T01:46:57.863Z,51.30
2023-01-13T01:49:33.906Z,52.00
2023-01-13T01:52:00.931Z,51.78
2023-01-13T01:55:09.957Z,52.06
2023-01-13T01:57:49.338Z,52.00
2023-01-13T02:00:20.462Z,51.97
2023-01-13T02:02:50.180Z,51.46
2023-01-13T02:05:18.214Z,51.47
2023-01-13T02:07:49.512Z,51.82
2023-01-13T02:10:20.316Z,51.85
2023-01-13T02:12:49.084Z,51.86
2023-01-13T02:15:39.498Z,51.59
2023-01-13T02:18:35.745Z,52.38
2023-01-13T02:21:45.688Z,52.44
2023-01-13T02:24:54.789Z,52.54
2023-01-13T02:27:42.854Z,52.37
2023-01-13T02:30:48.367Z,52.52
2023-01-13T02:33:31.224Z,53.35
2023-01-13T02:36:10.514Z,53.34
2023-01-13T02:38:51.053Z,53.46
2023-01-13T02:41:53.369Z,53.70
2023-01-13T02:44:26.159Z,53.26
2023-01-13T02:47:05.380Z,54.13
2023-01-13T02:49:46.848Z,54.20
2023-01-13T02:52:21.233Z,53.61
2023-01-13T02:54:58.917Z,53.74
2023-01-13T02:57:28.549Z,54.43
2023-01-13T02:59:56.038Z,54.46
2023-01-13T03:02:25.452Z,54.79
2023-01-13T03:04:57.904Z,54.63
2023-01-13T03:07:47.986Z,54.91
2023-01-13T03:10:51.116Z,55.47
2023-01-13T03:13:21.065Z,55.44
2023-01-13T03:16:09.977Z,54.38
2023-01-13T03:18:56.549Z,54.74
2023-01-13T03:21:49.764Z,54.27
2023-01-13T03:24:39.028Z,54.97
2023-01-13T03:27:41.395Z,55.19
2023-01-13T03:30:17.434Z,54.73
2023-01-13T03:32:49.861Z,54.75
2023-01-13T03:35:32.458Z,54.72
2023-01-13T03:38:34.835Z,55.32
2023-01-13T03:41:07.120Z,55.28
2023-01-13T03:43:58.832Z,55.21
2023-01-13T03:46:54.873Z,55.90
2023-01-13T03:49:25.835Z,54.72
2023-01-13T03:51:58.850Z,55.27
2023-01-13T03:54:31.310Z,55.27
2023-01-13T03:57:04.476Z,56.02
2023-01-13T03:59:35.740Z,56.04
2023-01-13T04:02:21.933Z,56.58
2023-01-13T04:04:54.747Z,56.24
2023-01-13T04:07:36.307Z,56.24
2023-01-13T04:10:07.324Z,56.39
2023-01-13T04:13:00.321Z,56.52
2023-01-13T04:15:30.987Z,56.68
2023-01-13T04:18:14.492Z,57.01
2023-01-13T04:20:43.778Z,56.70
2023-01-13T04:23:13.832Z,56.81
2023-01-13T04:25:45.951Z,57.10
2023-01-13T04:28:14.406Z,56.81
2023-01-13T04:30:42.663Z,57.34
2023-01-13T04:33:10.759Z,57.95
2023-01-13T04:35:38.461Z,57.82
2023-01-13T04:38:09.083Z,58.17
2023-01-13T04:40:36.542Z,58.06
2023-01-13T04:43:04.351Z,58.32
2023-01-13T04:45:32.046Z,58.79
2023-01-13T04:47:59.304Z,58.43
2023-01-13T04:50:26.455Z,58.77
2023-01-13T04:52:54.328Z,58.91
2023-01-13T04:55:23.131Z,58.30
2023-01-13T04:57:50.097Z,58.29
2023-01-13T05:00:19.321Z,58.47
2023-01-13T05:02:46.498Z,58.16
2023-01-13T05:05:13.444Z,59.20
2023-01-13T05:07:50.695Z,59.13
2023-01-13T05:10:18.017Z,58.56
2023-01-13T05:13:09.584Z,59.68
2023-01-13T05:16:01.102Z,58.99
2023-01-13T05:18:33.848Z,58.92
2023-01-13T05:21:00.800Z,58.84
2023-01-13T05:23:46.930Z,59.01
2023-01-13T05:26:13.942Z,59.27
2023-01-13T05:28:40.852Z,58.97
2023-01-13T05:31:08.376Z,58.79
2023-01-13T05:33:36.143Z,59.38
2023-01-13T05:36:04.410Z,59.11
2023-01-13T05:38:31.311Z,59.23
2023-01-13T05:41:18.422Z,59.04
2023-01-13T05:43:45.434Z,59.69
2023-01-13T05:46:12.623Z,59.69
2023-01-13T05:48:42.087Z,59.60
2023-01-13T05:51:11.740Z,59.04
2023-01-13T05:53:41.009Z,59.48
2023-01-13T05:56:09.384Z,59.71
2023-01-13T05:58:36.793Z,59.56
2023-01-13T06:01:08.045Z,59.33
2023-01-13T06:03:35.984Z,59.39
2023-01-13T06:06:04.302Z,59.24
2023-01-13T06:08:32.314Z,59.18
2023-01-13T06:10:59.323Z,59.09
2023-01-13T06:13:26.428Z,59.23
2023-01-13T06:15:58.133Z,59.48
2023-01-13T06:18:25.676Z,58.58
2023-01-13T06:20:52.624Z,59.17
2023-01-13T06:23:25.320Z,59.03
2023-01-13T06:26:21.232Z,59.13
2023-01-13T06:28:50.149Z,59.25
2023-01-13T06:31:17.593Z,58.72
2023-01-13T06:33:55.817Z,59.42
2023-01-13T06:36:31.577Z,59.27
2023-01-13T06:39:11.577Z,59.11
2023-01-13T06:41:57.584Z,59.13
2023-01-13T06:44:25.329Z,58.94
2023-01-13T06:46:52.526Z,59.29
2023-01-13T06:49:21.530Z,58.63
2023-01-13T06:51:48.888Z,58.86
2023-01-13T06:54:16.515Z,58.95
2023-01-13T06:56:44.107Z,59.16
2023-01-13T06:59:11.065Z,58.39
2023-01-13T07:01:42.693Z,59.25
2023-01-13T07:04:10.029Z,58.98
2023-01-13T07:06:37.046Z,58.48
2023-01-13T07:09:06.730Z,58.64
2023-01-13T07:11:38.591Z,58.67
2023-01-13T07:14:24.143Z,58.88
2023-01-13T07:16:53.221Z,59.04
2023-01-13T07:19:24.049Z,58.54
2023-01-13T07:22:04.255Z,58.49
2023-01-13T07:24:31.571Z,58.63
2023-01-13T07:26:58.529Z,58.69
2023-01-13T07:29:25.553Z,58.48
2023-01-13T07:31:54.121Z,58.26
2023-01-13T07:34:21.100Z,58.19
2023-01-13T07:36:48.723Z,57.96
2023-01-13T07:39:15.787Z,57.84
2023-01-13T07:42:01.370Z,57.52
2023-01-13T07:44:31.525Z,56.65
2023-01-13T07:47:10.553Z,55.26
2023-01-13T07:49:38.623Z,48.58
2023-01-13T07:52:15.453Z,50.27
2023-01-13T07:54:42.720Z,51.13
2023-01-13T07:57:09.789Z,51.86
2023-01-13T07:59:37.155Z,51.00
2023-01-13T08:02:04.429Z,51.97
2023-01-13T08:04:31.525Z,52.73
2023-01-13T08:07:02.611Z,53.18
2023-01-13T08:09:29.946Z,53.45
2023-01-13T08:12:15.762Z,53.49
2023-01-13T08:14:43.006Z,53.93
2023-01-13T08:17:25.939Z,54.11
2023-01-13T08:19:53.725Z,54.19
2023-01-13T08:22:20.641Z,54.47
2023-01-13T08:24:47.774Z,54.57
2023-01-13T08:27:14.941Z,54.38
2023-01-13T08:29:51.045Z,54.59
2023-01-13T08:32:25.027Z,54.65
2023-01-13T08:34:52.405Z,54.58
2023-01-13T08:37:19.461Z,54.84
2023-01-13T08:39:47.400Z,54.81
2023-01-13T08:42:14.825Z,54.68
2023-01-13T08:44:42.081Z,54.49
2023-01-13T08:47:09.158Z,54.47
2023-01-13T08:49:36.086Z,54.21
2023-01-13T08:52:03.108Z,54.77
2023-01-13T08:54:30.073Z,54.61
2023-01-13T08:56:57.069Z,54.51
2023-01-13T08:59:23.958Z,54.55
2023-01-13T09:01:51.130Z,54.86
2023-01-13T09:04:21.428Z,54.46
2023-01-13T09:06:49.729Z,54.41
2023-01-13T09:09:22.565Z,54.15
2023-01-13T09:12:10.223Z,54.17
2023-01-13T09:14:38.690Z,53.65
2023-01-13T09:17:07.499Z,53.44
2023-01-13T09:19:34.443Z,52.80
2023-01-13T09:22:01.612Z,52.58
2023-01-13T09:24:29.054Z,52.63
2023-01-13T09:26:56.176Z,52.24
2023-01-13T09:29:23.267Z,51.83
2023-01-13T09:31:50.417Z,51.28
2023-01-13T09:34:38.257Z,50.54
2023-01-13T09:37:06.988Z,49.63
2023-01-13T09:39:35.134Z,48.96
2023-01-13T09:42:47.377Z,47.69
2023-01-13T09:45:20.917Z,46.20
2023-01-13T09:48:05.884Z,41.64
2023-01-13T09:50:50.541Z,35.38
2023-01-13T09:53:30.984Z,38.64
2023-01-13T09:55:58.135Z,39.97
2023-01-13T09:58:25.175Z,40.49
2023-01-13T10:01:13.184Z,39.65
2023-01-13T10:03:40.390Z,39.57
2023-01-13T10:06:51.882Z,40.01
2023-01-13T10:09:44.073Z,39.42
2023-01-13T10:12:36.417Z,33.37
2023-01-13T10:15:04.034Z,28.81
2023-01-13T10:17:51.036Z,30.82
2023-01-13T10:20:26.749Z,29.15
2023-01-13T10:23:15.321Z,28.64
2023-01-13T10:25:56.761Z,22.45
2023-01-13T10:28:25.487Z,20.01
2023-01-13T10:30:52.700Z,20.60
2023-01-13T10:33:28.143Z,21.36
2023-01-13T10:36:12.974Z,17.25
2023-01-13T10:38:46.195Z,14.70
2023-01-13T10:41:15.855Z,14.26
2023-01-13T10:44:01.656Z,13.53
2023-01-13T10:46:29.626Z,12.80
2023-01-13T10:48:59.031Z,12.28
2023-01-13T10:51:39.135Z,11.27
2023-01-13T10:54:12.849Z,10.86
2023-01-13T10:56:42.588Z,11.46
2023-01-13T10:59:28.945Z,13.20
2023-01-13T11:02:13.115Z,12.12
2023-01-13T11:04:53.521Z,11.52
2023-01-13T11:07:58.161Z,11.32
2023-01-13T11:10:28.972Z,11.95
2023-01-13T11:13:12.700Z,11.41
2023-01-13T11:15:46.409Z,10.54
2023-01-13T11:18:24.990Z,10.45
2023-01-13T11:20:53.146Z,9.87
2023-01-13T11:23:34.421Z,11.39
2023-01-13T11:26:24.051Z,13.34
2023-01-13T11:29:00.989Z,12.19
2023-01-13T11:31:33.864Z,15.08
2023-01-13T11:34:37.239Z,18.46
2023-01-13T11:37:14.898Z,20.44
2023-01-13T11:39:53.981Z,23.02
2023-01-13T11:42:46.551Z,25.07
2023-01-13T11:45:25.283Z,26.24
2023-01-13T11:47:58.291Z,26.72
2023-01-13T11:50:40.842Z,27.76
2023-01-13T11:53:22.331Z,28.46
2023-01-13T11:56:16.942Z,29.26
2023-01-13T11:58:55.717Z,29.26
2023-01-13T12:01:44.009Z,30.21
2023-01-13T12:04:50.080Z,30.74
2023-01-13T12:08:04.889Z,31.32
2023-01-13T12:10:34.731Z,31.81
2023-01-13T12:13:27.704Z,31.90
2023-01-13T12:16:14.906Z,32.05
2023-01-13T12:19:21.617Z,33.08
2023-01-13T12:21:56.969Z,33.04
2023-01-13T12:25:03.028Z,33.03
2023-01-13T12:27:45.322Z,33.01
2023-01-13T12:30:37.279Z,33.38
2023-01-13T12:33:26.954Z,33.63
2023-01-13T12:36:26.476Z,33.78
2023-01-13T12:38:59.575Z,33.30
2023-01-13T12:41:32.847Z,33.32
2023-01-13T12:44:20.350Z,34.34
2023-01-13T12:46:56.827Z,33.74
2023-01-13T12:49:29.631Z,34.18
2023-01-13T12:51:56.508Z,34.28
2023-01-13T12:54:41.603Z,33.94
2023-01-13T12:57:21.922Z,34.10
2023-01-13T13:00:04.038Z,34.65
2023-01-13T13:02:41.407Z,34.36
2023-01-13T13:05:14.484Z,34.32
2023-01-13T13:08:20.942Z,34.07
2023-01-13T13:11:03.176Z,33.76
2023-01-13T13:13:43.787Z,34.18
2023-01-13T13:16:50.691Z,34.32
2023-01-13T13:19:21.351Z,34.21
2023-01-13T13:22:12.954Z,34.38
2023-01-13T13:25:03.862Z,34.22
2023-01-13T13:27:50.155Z,33.66
2023-01-13T13:30:40.739Z,33.99
2023-01-13T13:33:35.298Z,33.79
2023-01-13T13:36:11.480Z,35.63
2023-01-13T13:39:08.137Z,35.17
2023-01-13T13:41:55.687Z,34.81
2023-01-13T13:44:59.562Z,35.36
2023-01-13T13:47:39.182Z,35.06
2023-01-13T13:50:12.939Z,34.71
2023-01-13T13:52:54.558Z,35.51
2023-01-13T13:55:27.411Z,35.92
2023-01-13T13:57:57.709Z,36.13
2023-01-13T14:03:40.003Z,36.27
2023-01-13T14:06:08.179Z,36.61
2023-01-13T14:08:38.478Z,37.21
2023-01-13T14:11:32.654Z,36.91
2023-01-13T14:14:12.914Z,37.10
2023-01-13T14:16:44.020Z,38.02
2023-01-13T14:19:30.750Z,38.57
2023-01-13T14:22:01.870Z,38.13
2023-01-13T14:24:32.048Z,38.66
2023-01-13T14:27:16.491Z,39.22
2023-01-13T14:29:44.268Z,38.99
2023-01-13T14:32:17.882Z,39.52
2023-01-13T14:34:45.156Z,39.67
2023-01-13T14:37:33.760Z,40.12
2023-01-13T14:40:00.800Z,40.41
2023-01-13T14:42:42.162Z,40.78
2023-01-13T14:45:25.081Z,40.83
2023-01-13T14:47:53.975Z,40.58
2023-01-13T14:50:28.768Z,40.37
2023-01-13T14:53:04.556Z,40.82
2023-01-13T14:55:34.834Z,41.11
2023-01-13T14:58:37.621Z,41.50
2023-01-13T15:01:26.437Z,41.22
2023-01-13T15:04:18.334Z,41.15
2023-01-13T15:06:50.742Z,41.52
2023-01-13T15:09:25.689Z,41.54
2023-01-13T15:11:54.389Z,41.69
2023-01-13T15:14:31.286Z,42.68
2023-01-13T15:16:58.396Z,42.22
2023-01-13T15:19:25.295Z,42.19
2023-01-13T15:21:52.414Z,42.47
2023-01-13T15:24:19.312Z,42.54
2023-01-13T15:26:46.285Z,42.87
2023-01-13T15:29:17.509Z,43.00
2023-01-13T15:31:44.635Z,43.04
2023-01-13T15:34:11.719Z,42.51
2023-01-13T15:36:39.973Z,42.72
2023-01-13T15:39:13.366Z,42.92
2023-01-13T15:41:58.624Z,42.57
2023-01-13T15:44:45.146Z,43.00
2023-01-13T15:48:17.063Z,43.34
2023-01-13T15:50:44.071Z,43.38
2023-01-13T15:53:14.384Z,43.28
2023-01-13T15:55:47.373Z,44.80
2023-01-13T15:58:14.944Z,43.63
2023-01-13T16:00:42.700Z,43.78
2023-01-13T16:03:16.573Z,44.51
2023-01-13T16:05:44.559Z,44.41
2023-01-13T16:08:19.306Z,44.38
2023-01-13T16:10:46.742Z,44.47
2023-01-13T16:13:16.438Z,44.56
2023-01-13T16:15:50.091Z,44.63
2023-01-13T16:18:20.406Z,44.99
2023-01-13T16:20:52.925Z,44.96
2023-01-13T16:23:22.533Z,45.36
2023-01-13T16:25:50.557Z,45.03
2023-01-13T16:28:24.107Z,45.16
2023-01-13T16:30:51.818Z,45.70
2023-01-13T16:33:18.786Z,45.30
2023-01-13T16:36:10.957Z,45.93
2023-01-13T16:38:33.186Z,46.32
2023-01-13T16:41:00.106Z,46.05
2023-01-13T16:43:27.913Z,46.08
2023-01-13T16:45:54.846Z,46.56
2023-01-13T16:48:22.841Z,46.50
2023-01-13T16:50:49.785Z,47.06
2023-01-13T16:53:17.067Z,47.38
2023-01-13T16:55:44.016Z,47.31
2023-01-13T16:58:20.891Z,49.35
2023-01-13T17:00:48.227Z,48.99
2023-01-13T17:03:16.456Z,49.39
2023-01-13T17:05:46.930Z,49.65
2023-01-13T17:08:17.772Z,49.47
2023-01-13T17:10:46.040Z,49.07
2023-01-13T17:13:16.757Z,49.83
2023-01-13T17:15:44.736Z,49.73
2023-01-13T17:18:13.620Z,49.99
2023-01-13T17:20:41.235Z,49.81
2023-01-13T17:23:08.518Z,49.61
2023-01-13T17:25:35.572Z,49.81
2023-01-13T17:28:02.894Z,50.25
2023-01-13T17:30:38.039Z,50.73
2023-01-13T17:33:08.050Z,50.12
2023-01-13T17:35:35.728Z,50.88
2023-01-13T17:38:03.306Z,51.15
2023-01-13T17:40:32.739Z,52.09
2023-01-13T17:42:59.714Z,51.41
2023-01-13T17:45:33.226Z,50.85
2023-01-13T17:48:00.711Z,51.73
2023-01-13T17:50:27.964Z,52.47
2023-01-13T17:52:54.806Z,51.31
2023-01-13T17:55:21.756Z,51.04
2023-01-13T17:57:48.765Z,51.41
2023-01-13T18:00:16.615Z,51.91
2023-01-13T18:02:47.572Z,51.42
2023-01-13T18:05:14.620Z,52.72
2023-01-13T18:07:49.117Z,51.48
2023-01-13T18:10:16.457Z,51.69
2023-01-13T18:12:44.323Z,51.63
2023-01-13T18:15:11.289Z,51.82
2023-01-13T18:17:38.247Z,51.66
2023-01-13T18:20:26.244Z,51.58
2023-01-13T18:23:11.758Z,51.62
2023-01-13T18:26:03.135Z,52.68
2023-01-13T18:28:30.182Z,53.10
2023-01-13T18:30:57.169Z,52.09
2023-01-13T18:33:24.723Z,52.60
2023-01-13T18:35:53.032Z,52.00
2023-01-13T18:38:23.865Z,52.17
2023-01-13T18:40:50.813Z,52.89
2023-01-13T18:43:17.904Z,52.51
2023-01-13T18:45:50.557Z,53.83
2023-01-13T18:48:17.496Z,55.27
2023-01-13T18:50:44.425Z,55.18
2023-01-13T18:53:11.482Z,56.61
2023-01-13T18:55:38.454Z,56.57
2023-01-13T18:58:06.034Z,57.25
2023-01-13T19:00:36.693Z,57.63
2023-01-13T19:05:34.498Z,56.92
2023-01-13T19:08:02.252Z,56.22
2023-01-13T19:10:32.193Z,56.86
2023-01-13T19:12:59.087Z,56.71
2023-01-13T19:15:26.015Z,56.92
2023-01-13T19:17:52.924Z,56.84
2023-01-13T19:20:20.206Z,56.28
2023-01-13T19:22:54.044Z,56.14
2023-01-13T19:25:21.424Z,55.78
2023-01-13T19:27:48.682Z,55.99
2023-01-13T19:30:16.452Z,55.85
2023-01-13T19:32:43.391Z,55.88
2023-01-13T19:35:13.214Z,55.56
2023-01-13T19:37:40.610Z,55.72
2023-01-13T19:40:09.517Z,55.35
2023-01-13T19:42:54.764Z,55.33
2023-01-13T19:45:27.887Z,55.93
2023-01-13T19:47:56.252Z,55.45
2023-01-13T19:50:24.298Z,55.42
2023-01-13T19:52:51.385Z,56.10
2023-01-13T19:55:19.935Z,55.66
2023-01-13T19:57:47.454Z,55.42
2023-01-13T20:00:17.195Z,55.75
2023-01-13T20:02:49.448Z,55.90
2023-01-13T20:05:21.444Z,55.77
2023-01-13T20:07:50.178Z,55.53
2023-01-13T20:10:18.779Z,55.56
2023-01-13T20:12:45.666Z,55.65
2023-01-13T20:15:12.949Z,55.61
2023-01-13T20:17:41.525Z,55.50
2023-01-13T20:20:09.791Z,55.77
2023-01-13T20:22:38.120Z,55.55
2023-01-13T20:25:05.535Z,56.24
2023-01-13T20:27:32.666Z,56.70
2023-01-13T20:29:59.683Z,56.65
2023-01-13T20:32:26.628Z,56.87
2023-01-13T20:34:53.616Z,56.57
2023-01-13T20:37:20.597Z,56.47
2023-01-13T20:39:48.346Z,56.52
2023-01-13T20:42:30.348Z,56.40
2023-01-13T20:45:01.332Z,56.79
2023-01-13T20:47:29.616Z,56.31
2023-01-13T20:49:56.701Z,56.97
2023-01-13T20:52:24.055Z,56.71
2023-01-13T20:54:51.130Z,56.68
2023-01-13T20:57:18.561Z,56.81
2023-01-13T20:59:45.846Z,56.51
2023-01-13T21:02:15.627Z,56.51
2023-01-13T21:04:42.849Z,56.59
2023-01-13T21:07:10.440Z,56.82
2023-01-13T21:09:37.422Z,56.72
2023-01-13T21:12:23.241Z,56.95
2023-01-13T21:15:08.854Z,56.96
2023-01-13T21:17:54.847Z,57.16
2023-01-13T21:20:22.225Z,57.19
2023-01-13T21:22:49.873Z,57.49
2023-01-13T21:25:18.342Z,57.52
2023-01-13T21:27:45.584Z,57.38
2023-01-13T21:30:14.995Z,57.43
2023-01-13T21:32:43.016Z,57.75
2023-01-13T21:35:11.868Z,57.83
2023-01-13T21:37:40.551Z,57.80
2023-01-13T21:40:10.336Z,57.97
2023-01-13T21:42:56.581Z,57.82
2023-01-13T21:45:42.715Z,58.30
2023-01-13T21:48:09.762Z,58.15
2023-01-13T21:50:38.379Z,58.42
2023-01-13T21:53:05.543Z,58.59
2023-01-13T21:55:33.024Z,58.13
2023-01-13T21:58:15.206Z,58.83
2023-01-13T22:00:44.820Z,58.44
2023-01-13T22:03:14.119Z,58.44
2023-01-13T22:05:41.457Z,58.53
2023-01-13T22:08:08.918Z,58.75
2023-01-13T22:10:36.000Z,58.63
2023-01-13T22:13:23.540Z,58.86
2023-01-13T22:15:50.559Z,59.06
2023-01-13T22:18:18.529Z,58.88
2023-01-13T22:20:46.388Z,59.04
2023-01-13T22:23:13.747Z,59.39
2023-01-13T22:25:40.780Z,59.33
2023-01-13T22:28:09.481Z,59.38
2023-01-13T22:30:36.541Z,59.35
2023-01-13T22:33:06.227Z,59.31
2023-01-13T22:35:33.136Z,59.46
2023-01-13T22:38:00.107Z,59.29
2023-01-13T22:40:27.054Z,59.24
2023-01-13T22:42:54.066Z,59.32
2023-01-13T22:45:21.116Z,59.49
2023-01-13T22:47:49.706Z,59.50
2023-01-13T22:50:20.939Z,59.89
2023-01-13T22:52:47.969Z,59.65
2023-01-13T22:55:15.056Z,59.90
2023-01-13T22:57:47.715Z,59.90
2023-01-13T23:00:19.163Z,59.98
2023-01-13T23:02:46.520Z,60.05
2023-01-13T23:05:13.999Z,59.71
2023-01-13T23:07:41.327Z,59.92
2023-01-13T23:10:08.964Z,60.00
2023-01-13T23:12:36.149Z,59.88
2023-01-13T23:15:03.728Z,60.47
2023-01-13T23:17:30.716Z,59.92
2023-01-13T23:19:57.628Z,60.06
2023-01-13T23:22:24.887Z,60.30
2023-01-13T23:24:51.744Z,60.79
2023-01-13T23:27:18.886Z,60.21
2023-01-13T23:29:46.347Z,60.39
2023-01-13T23:32:13.321Z,60.32
2023-01-13T23:34:40.208Z,60.21
2023-01-13T23:37:07.324Z,60.06
2023-01-13T23:39:34.258Z,59.88
2023-01-13T23:42:01.495Z,60.26
2023-01-13T23:44:29.597Z,60.37
2023-01-13T23:46:56.709Z,60.29
2023-01-13T23:49:23.796Z,60.34
2023-01-13T23:51:51.906Z,60.96
2023-01-13T23:54:19.414Z,60.63
2023-01-13T23:56:49.135Z,60.55
2023-01-13T23:59:16.390Z,60.65
